Date,TemperatureHighF,TemperatureAvgF,TemperatureLowF,DewpointHighF,DewpointAvgF,DewpointLowF,HumidityHigh,HumidityAvg,HumidityLow,PressureMaxIn,PressureMinIn,WindSpeedMaxMPH,WindSpeedAvgMPH,GustSpeedMaxMPH,PrecipitationSumIn
2013-6-1,85.0,77.7,70.0,74.0,70.7,69.0,98,81,63,0.00,40.00,11,7,18,0.00
2013-6-2,85.0,78.2,72.0,74.0,71.3,-99.9,98,85,67,0.00,40.00,10,6,17,0.01
2013-6-3,89.0,81.0,76.0,76.0,73.9,71.0,97,80,57,0.00,40.00,9,6,15,0.08
2013-6-4,91.0,78.1,74.0,78.0,74.5,72.0,98,90,65,0.00,40.00,10,4,22,0.65
2013-6-5,81.0,76.8,72.0,78.0,74.4,71.0,98,93,84,0.00,40.00,13,4,19,0.37
2013-6-6,79.0,74.8,72.0,75.0,72.3,70.0,97,92,82,0.00,40.00,14,7,31,0.02
2013-6-7,88.0,78.1,72.0,74.0,71.6,70.0,98,82,58,0.00,40.00,17,11,26,0.01
2013-6-8,90.0,80.9,73.0,77.0,72.6,69.0,90,77,56,0.00,40.00,10,6,19,0.00
2013-6-9,87.0,81.1,77.0,79.0,75.3,72.0,97,84,68,0.00,40.00,12,6,17,0.00
2013-6-10,90.0,80.3,72.0,78.0,74.4,70.0,97,83,62,0.00,40.00,12,6,41,0.08
2013-6-11,91.0,81.3,72.0,74.0,71.7,69.0,97,75,49,0.00,40.00,10,6,15,0.06
2013-6-12,95.0,85.8,77.0,77.0,72.9,70.0,86,67,49,0.00,40.00,8,5,15,0.00
2013-6-13,95.0,86.2,78.0,77.0,74.1,71.0,89,69,49,0.00,40.00,13,6,22,0.00
2013-6-14,88.0,81.9,73.0,74.0,68.8,65.0,88,66,47,0.00,40.00,12,6,20,0.00
2013-6-15,85.0,77.2,69.0,71.0,67.7,63.0,97,74,52,0.00,40.00,12,6,23,0.00
2013-6-16,89.0,78.5,70.0,72.0,68.0,65.0,97,73,45,0.00,40.00,9,4,15,0.00
2013-6-17,91.0,78.4,71.0,77.0,72.2,67.0,98,83,54,0.00,40.00,11,4,19,0.00
2013-6-18,89.0,81.1,73.0,76.0,72.9,69.0,98,78,53,0.00,40.00,13,6,21,0.00
2013-6-19,88.0,79.4,72.0,75.0,72.5,71.0,98,81,65,0.00,40.00,11,6,20,0.00
2013-6-20,84.0,75.6,71.0,74.0,71.6,70.0,98,89,68,0.00,40.00,11,5,16,0.00
2013-6-22,86.0,80.5,76.0,75.0,73.0,71.0,95,79,63,0.00,40.00,9,5,15,0.00
2013-6-23,90.0,79.6,73.0,77.0,74.0,71.0,98,84,61,0.00,40.00,7,3,14,0.00
2013-6-24,92.0,80.7,73.0,77.0,74.4,72.0,98,83,55,0.00,40.00,9,4,15,0.00
2013-6-25,91.0,80.1,72.0,78.0,73.9,68.0,98,83,59,0.00,40.00,9,3,20,0.00
2013-6-26,93.0,79.7,72.0,76.0,73.4,71.0,98,83,55,0.00,40.00,8,4,14,0.00
2013-6-27,92.0,80.9,74.0,76.0,74.1,67.0,92,81,59,0.00,40.00,10,6,35,0.00
2013-6-28,93.0,81.5,75.0,79.0,73.7,69.0,92,78,58,0.00,40.00,11,8,33,0.00
2013-6-29,86.0,79.5,74.0,75.0,72.7,70.0,95,81,64,0.00,40.00,10,6,19,0.00
2013-6-30,89.0,79.9,76.0,77.0,74.6,73.0,94,85,63,0.00,40.00,11,6,23,0.00